Check out our new BloomSky Weather System.

Active alerts


No alerts


Thunder radar  blitzortung!


Rain radar more information rain snow radar


Visit our other weather sites:

Template documentation
and downloads

And another site



Weather Underground History page Text

Daily Summary for July 12, 2017 Units:  Metric    English   Both
« Previous Day
Next Day »
Daily Weekly Monthly Yearly Custom
  High: Low: Average:
Temperature: 34.7 °C 24.2 °C 28 °C
Dew Point: 27 °C 23.5 °C 24.9 °C
Humidity: 99 % 54 % 85 %
Wind Speed: 11.3 km/h 0 km/h 1.8 km/h
Wind Gust: 17.7 km/h - -
Wind:- - SSE
Pressure: 1017.5 hPa 1015.1 hPa -
Precipitation: 24.89 mm    
Historical Graphs
 
 
Tabular Data for July 12, 2017
Time Temperature Dew Point Pressure Wind Wind Speed Wind Gust Humidity Rainfall Rate (Hourly)
00:02 27.4 °C 24.7 °C 1015.5 hPa SE 1.6 km/h 6.4 km/h 85 % 0 mm
00:07 27.4 °C 24.7 °C 1015.5 hPa SSE 1.6 km/h 6.4 km/h 85 % 0 mm
00:12 27.3 °C 24.7 °C 1015.5 hPa South 3.2 km/h 8 km/h 86 % 0 mm
00:17 27.3 °C 24.7 °C 1015.5 hPa SE 1.6 km/h 8 km/h 86 % 0 mm
00:22 27.3 °C 24.7 °C 1015.5 hPa SSW 3.2 km/h 8 km/h 86 % 0 mm
00:27 27.2 °C 24.7 °C 1015.5 hPa SSE 4.8 km/h 4.8 km/h 86 % 0 mm
00:32 27.2 °C 24.7 °C 1015.5 hPa SSE 1.6 km/h 6.4 km/h 86 % 0 mm
00:37 27.2 °C 24.7 °C 1015.5 hPa SE 3.2 km/h 6.4 km/h 86 % 0 mm
00:42 27.2 °C 24.7 °C 1015.5 hPa Calm   6.4 km/h 86 % 0 mm
00:43 27.1 °C 24.6 °C 1015.5 hPa Calm   6.4 km/h 86 % 0 mm
00:48 27.1 °C 24.7 °C 1015.5 hPa SSE 1.6 km/h 6.4 km/h 87 % 0 mm
00:53 27 °C 24.6 °C 1015.5 hPa East 1.6 km/h 4.8 km/h 87 % 0 mm
00:58 26.9 °C 24.5 °C 1015.5 hPa Calm   3.2 km/h 87 % 0 mm
01:03 26.8 °C 24.5 °C 1015.5 hPa Calm   3.2 km/h 87 % 0 mm
01:08 26.8 °C 24.6 °C 1015.1 hPa Calm   3.2 km/h 88 % 0 mm
01:13 26.7 °C 24.5 °C 1015.1 hPa Calm   3.2 km/h 88 % 0 mm
01:18 26.6 °C 24.4 °C 1015.1 hPa Calm   3.2 km/h 88 % 0 mm
01:23 26.4 °C 24.2 °C 1015.1 hPa Calm   1.6 km/h 88 % 0 mm
01:28 26.4 °C 24.4 °C 1015.1 hPa Calm   1.6 km/h 89 % 0 mm
01:33 26.3 °C 24.3 °C 1015.1 hPa Calm   1.6 km/h 89 % 0 mm
01:38 26.2 °C 24.2 °C 1015.1 hPa Calm   1.6 km/h 89 % 0 mm
01:41 26.1 °C 24.3 °C 1015.1 hPa Calm   1.6 km/h 90 % 0 mm
01:46 26.1 °C 24.3 °C 1015.1 hPa Calm   1.6 km/h 90 % 0 mm
01:51 26 °C 24.2 °C 1015.1 hPa Calm   1.6 km/h 90 % 0 mm
01:56 25.9 °C 24.3 °C 1015.1 hPa Calm   1.6 km/h 91 % 0 mm
02:01 25.9 °C 24.3 °C 1015.1 hPa Calm   1.6 km/h 91 % 0 mm
02:06 25.8 °C 24.2 °C 1015.1 hPa Calm   1.6 km/h 91 % 0 mm
02:11 25.7 °C 24.1 °C 1015.1 hPa Calm     91 % 0 mm
02:16 25.6 °C 24 °C 1015.1 hPa Calm     91 % 0 mm
02:21 25.6 °C 24 °C 1015.1 hPa Calm     91 % 0 mm
02:26 25.4 °C 24 °C 1015.1 hPa Calm     92 % 0 mm
02:31 25.4 °C 24 °C 1015.5 hPa Calm     92 % 0 mm
02:36 25.4 °C 24 °C 1015.5 hPa Calm     92 % 0 mm
02:41 25.3 °C 23.9 °C 1015.5 hPa Calm     92 % 0 mm
02:46 25.2 °C 23.8 °C 1015.5 hPa Calm     92 % 0 mm
02:51 25.2 °C 24 °C 1015.5 hPa Calm     93 % 0 mm
02:56 25.2 °C 24 °C 1015.5 hPa Calm     93 % 0 mm
03:02 25.2 °C 24 °C 1015.5 hPa Calm     93 % 0 mm
03:07 25.2 °C 24 °C 1015.1 hPa Calm     93 % 0 mm
03:12 25.1 °C 24.1 °C 1015.5 hPa Calm     94 % 0 mm
03:17 25.1 °C 24.1 °C 1015.1 hPa Calm     94 % 0 mm
03:22 25 °C 24 °C 1015.1 hPa Calm     94 % 0 mm
03:27 25.1 °C 24.1 °C 1015.1 hPa Calm     94 % 0 mm
03:32 25.1 °C 24.1 °C 1015.1 hPa Calm     94 % 0 mm
03:37 25.1 °C 24.1 °C 1015.5 hPa Calm     94 % 0 mm
03:38 25.1 °C 24.1 °C 1015.5 hPa Calm     94 % 0 mm
03:43 25 °C 24 °C 1015.5 hPa Calm     94 % 0 mm
03:48 24.9 °C 23.9 °C 1015.1 hPa Calm     94 % 0 mm
03:53 24.8 °C 23.8 °C 1015.1 hPa Calm     94 % 0 mm
03:58 24.8 °C 23.9 °C 1015.1 hPa Calm     95 % 0 mm
04:00 24.8 °C 23.8 °C 1015.1 hPa Calm     94 % 0 mm
04:05 24.7 °C 23.7 °C 1015.1 hPa Calm     94 % 0 mm
04:10 24.7 °C 23.8 °C 1015.5 hPa Calm     95 % 0 mm
04:15 24.7 °C 23.8 °C 1015.5 hPa Calm     95 % 0 mm
04:20 24.7 °C 23.8 °C 1015.5 hPa Calm     95 % 0 mm
04:25 24.6 °C 23.7 °C 1015.5 hPa Calm     95 % 0 mm
04:30 24.6 °C 23.7 °C 1015.5 hPa Calm     95 % 0 mm
04:35 24.8 °C 24.1 °C 1015.5 hPa Calm   1.6 km/h 96 % 0 mm
04:40 24.8 °C 23.9 °C 1015.5 hPa Calm   1.6 km/h 95 % 0 mm
04:45 24.8 °C 23.9 °C 1015.5 hPa Calm   1.6 km/h 95 % 0 mm
04:50 24.7 °C 23.8 °C 1015.5 hPa Calm     95 % 0 mm
04:55 24.7 °C 24 °C 1015.5 hPa Calm     96 % 0 mm
04:57 24.7 °C 24 °C 1015.5 hPa Calm     96 % 0 mm
05:02 24.7 °C 23.8 °C 1015.5 hPa Calm     95 % 0 mm
05:07 24.6 °C 23.9 °C 1015.5 hPa Calm     96 % 0 mm
05:12 24.6 °C 23.9 °C 1015.5 hPa Calm     96 % 0 mm
05:17 24.6 °C 23.9 °C 1015.5 hPa Calm     96 % 0 mm
05:22 24.6 °C 23.9 °C 1015.5 hPa Calm     96 % 0 mm
05:27 24.5 °C 23.8 °C 1015.5 hPa Calm     96 % 0 mm
05:31 24.4 °C 23.7 °C 1015.5 hPa Calm     96 % 0 mm
05:37 24.4 °C 23.7 °C 1015.5 hPa Calm     96 % 0 mm
05:42 24.3 °C 23.6 °C 1015.5 hPa Calm     96 % 0 mm
05:47 24.3 °C 23.6 °C 1015.5 hPa Calm     96 % 0 mm
05:52 24.3 °C 23.6 °C 1015.5 hPa Calm     96 % 0 mm
05:57 24.2 °C 23.5 °C 1015.8 hPa Calm     96 % 0 mm
06:02 24.3 °C 23.6 °C 1015.8 hPa Calm     96 % 0 mm
06:07 24.4 °C 23.9 °C 1015.8 hPa Calm   1.6 km/h 97 % 0 mm
06:12 24.4 °C 23.7 °C 1015.8 hPa Calm   1.6 km/h 96 % 0 mm
06:17 24.4 °C 23.7 °C 1015.8 hPa Calm   1.6 km/h 96 % 0 mm
06:22 24.4 °C 23.7 °C 1015.8 hPa Calm   1.6 km/h 96 % 0 mm
06:27 24.4 °C 23.9 °C 1015.8 hPa Calm     97 % 0 mm
06:32 24.4 °C 23.7 °C 1016.1 hPa Calm     96 % 0 mm
06:37 24.4 °C 23.9 °C 1016.1 hPa Calm     97 % 0 mm
06:42 24.4 °C 23.9 °C 1016.1 hPa Calm   1.6 km/h 97 % 0 mm
06:47 24.4 °C 23.9 °C 1016.1 hPa Calm   1.6 km/h 97 % 0 mm
06:52 24.5 °C 24 °C 1016.1 hPa Calm   1.6 km/h 97 % 0 mm
06:57 24.6 °C 24.1 °C 1016.1 hPa Calm   1.6 km/h 97 % 0 mm
07:02 24.6 °C 24.1 °C 1016.5 hPa Calm   1.6 km/h 97 % 0 mm
07:07 24.7 °C 24.2 °C 1016.5 hPa Calm   1.6 km/h 97 % 0 mm
07:12 24.8 °C 24.3 °C 1016.5 hPa Calm   1.6 km/h 97 % 0 mm
07:17 24.8 °C 24.3 °C 1016.5 hPa Calm   1.6 km/h 97 % 0 mm
07:22 24.9 °C 24.4 °C 1016.5 hPa Calm   1.6 km/h 97 % 0 mm
07:27 24.9 °C 24.4 °C 1016.8 hPa Calm   1.6 km/h 97 % 0 mm
07:32 25 °C 24.5 °C 1016.8 hPa Calm   1.6 km/h 97 % 0 mm
07:37 25.1 °C 24.6 °C 1016.8 hPa Calm   1.6 km/h 97 % 0 mm
07:42 25.3 °C 24.8 °C 1016.8 hPa Calm   1.6 km/h 97 % 0 mm
07:47 25.6 °C 25.1 °C 1016.8 hPa Calm   1.6 km/h 97 % 0 mm
07:52 26 °C 25.5 °C 1017.2 hPa Calm   3.2 km/h 97 % 0 mm
07:57 26.4 °C 25.5 °C 1016.8 hPa Calm   3.2 km/h 95 % 0 mm
08:02 26.6 °C 25.6 °C 1017.2 hPa East 1.6 km/h 3.2 km/h 94 % 0 mm
08:07 26.9 °C 25.7 °C 1016.8 hPa Calm   4.8 km/h 93 % 0 mm
08:12 27.2 °C 25.8 °C 1017.2 hPa Calm   4.8 km/h 92 % 0 mm
08:17 27.4 °C 25.6 °C 1017.2 hPa East 1.6 km/h 4.8 km/h 90 % 0 mm
08:22 27.7 °C 25.7 °C 1017.2 hPa Calm   4.8 km/h 89 % 0 mm
08:27 28 °C 25.6 °C 1017.2 hPa Calm   4.8 km/h 87 % 0 mm
08:32 28.4 °C 25.8 °C 1017.2 hPa Calm   4.8 km/h 86 % 0 mm
08:37 28.8 °C 26 °C 1017.2 hPa Calm   4.8 km/h 85 % 0 mm
08:42 29.1 °C 26.1 °C 1017.2 hPa Calm   4.8 km/h 84 % 0 mm
08:47 29.4 °C 26 °C 1017.2 hPa East 1.6 km/h 4.8 km/h 82 % 0 mm
08:52 29.4 °C 25.8 °C 1017.2 hPa Calm   6.4 km/h 81 % 0 mm
08:57 29.8 °C 26.4 °C 1017.2 hPa SE 1.6 km/h 6.4 km/h 82 % 0 mm
09:02 30.2 °C 26.1 °C 1017.2 hPa Calm   6.4 km/h 79 % 0 mm
09:07 30.5 °C 26.2 °C 1017.5 hPa ESE 1.6 km/h 6.4 km/h 78 % 0 mm
09:12 30.4 °C 25.9 °C 1017.5 hPa SE 4.8 km/h 6.4 km/h 77 % 0 mm
09:17 30.3 °C 25.8 °C 1017.5 hPa SSE 3.2 km/h 11.3 km/h 77 % 0 mm
09:22 30.2 °C 25.7 °C 1017.5 hPa East 3.2 km/h 11.3 km/h 77 % 0 mm
09:27 30.4 °C 25.9 °C 1017.5 hPa ESE 6.4 km/h 11.3 km/h 77 % 0 mm
09:32 30.5 °C 26 °C 1017.5 hPa SSE 3.2 km/h 9.7 km/h 77 % 0 mm
09:37 30.6 °C 25.9 °C 1017.5 hPa SE 1.6 km/h 11.3 km/h 76 % 0 mm
09:42 30.7 °C 26 °C 1017.5 hPa SW 6.4 km/h 11.3 km/h 76 % 0 mm
09:47 30.9 °C 26.4 °C 1017.5 hPa Calm   11.3 km/h 77 % 0 mm
09:52 31.3 °C 25.9 °C 1017.2 hPa SSW 1.6 km/h 9.7 km/h 73 % 0 mm
09:57 31.2 °C 25.8 °C 1017.2 hPa SSE 1.6 km/h 9.7 km/h 73 % 0 mm
10:02 30.9 °C 25.5 °C 1017.2 hPa SSW 4.8 km/h 8 km/h 73 % 0 mm
10:07 30.7 °C 25.5 °C 1017.2 hPa South 3.2 km/h 8 km/h 74 % 0 mm
10:12 30.8 °C 24.9 °C 1017.2 hPa Calm   8 km/h 71 % 0 mm
10:17 30.9 °C 25.5 °C 1017.2 hPa SSE 8 km/h 8 km/h 73 % 0 mm
10:22 31.2 °C 25.8 °C 1017.2 hPa SSE 4.8 km/h 8 km/h 73 % 0 mm
10:27 31.3 °C 25.4 °C 1017.2 hPa South 3.2 km/h 8 km/h 71 % 0 mm
10:32 31.5 °C 25.4 °C 1017.2 hPa SSE 8 km/h 8 km/h 70 % 0 mm
10:37 31.2 °C 24.8 °C 1017.2 hPa SSW 1.6 km/h 12.9 km/h 69 % 0 mm
10:42 31 °C 24.9 °C 1017.2 hPa South 8 km/h 12.9 km/h 70 % 0 mm
10:47 30.9 °C 25 °C 1017.2 hPa SSE 4.8 km/h 12.9 km/h 71 % 0 mm
10:52 31.1 °C 25.7 °C 1017.2 hPa SSE 1.6 km/h 9.7 km/h 73 % 0 mm
10:57 31.4 °C 25.3 °C 1017.2 hPa SE 4.8 km/h 12.9 km/h 70 % 0 mm
11:02 31.6 °C 25.2 °C 1017.2 hPa South 3.2 km/h 12.9 km/h 69 % 0 mm
11:07 31.7 °C 26 °C 1017.2 hPa South 3.2 km/h 12.9 km/h 72 % 0 mm
11:12 31.7 °C 25.8 °C 1017.2 hPa South 3.2 km/h 12.9 km/h 71 % 0 mm
11:17 31.4 °C 25 °C 1017.2 hPa SSW 3.2 km/h 9.7 km/h 69 % 0 mm
11:22 31.5 °C 25.6 °C 1017.5 hPa SSW 3.2 km/h 9.7 km/h 71 % 0 mm
11:27 32.2 °C 26.3 °C 1017.2 hPa Calm   9.7 km/h 71 % 0 mm
11:32 32.8 °C 25.6 °C 1017.2 hPa SSW 3.2 km/h 9.7 km/h 66 % 0 mm
11:37 32.9 °C 26.2 °C 1017.2 hPa South 1.6 km/h 9.7 km/h 68 % 0 mm
11:42 33.1 °C 26.1 °C 1017.2 hPa Calm   8 km/h 67 % 0 mm
11:47 32.6 °C 25.2 °C 1017.2 hPa South 1.6 km/h 8 km/h 65 % 0 mm
11:52 32.2 °C 25 °C 1017.2 hPa SSW 3.2 km/h 6.4 km/h 66 % 0 mm
11:57 32.2 °C 25.5 °C 1017.2 hPa SW 4.8 km/h 6.4 km/h 68 % 0 mm
12:02 32.1 °C 25.2 °C 1017.2 hPa Calm   8 km/h 67 % 0 mm
12:07 31.8 °C 24.7 °C 1017.2 hPa South 6.4 km/h 8 km/h 66 % 0 mm
12:12 31.5 °C 24.1 °C 1017.2 hPa SSE 4.8 km/h 9.7 km/h 65 % 0 mm
12:17 31.4 °C 24 °C 1017.2 hPa South 3.2 km/h 9.7 km/h 65 % 0 mm
12:22 31.6 °C 25.2 °C 1017.2 hPa ESE 6.4 km/h 9.7 km/h 69 % 0 mm
12:27 32 °C 24.8 °C 1016.8 hPa SSW 6.4 km/h 9.7 km/h 66 % 0 mm
12:32 32.4 °C 24.7 °C 1016.8 hPa SSE 9.7 km/h 11.3 km/h 64 % 0 mm
12:37 32.7 °C 25.5 °C 1016.8 hPa SSE 3.2 km/h 14.5 km/h 66 % 0 mm
12:42 32.9 °C 24.6 °C 1016.8 hPa South 11.3 km/h 14.5 km/h 62 % 0 mm
12:47 33.2 °C 24.7 °C 1016.8 hPa East 6.4 km/h 17.7 km/h 61 % 0 mm
12:52 33.2 °C 24.7 °C 1016.8 hPa SSE 6.4 km/h 17.7 km/h 61 % 0 mm
12:57 33.2 °C 24.9 °C 1017.2 hPa ESE 3.2 km/h 17.7 km/h 62 % 0 mm
13:02 33.1 °C 25.1 °C 1016.8 hPa East 4.8 km/h 14.5 km/h 63 % 0 mm
13:07 33.1 °C 24.8 °C 1016.8 hPa ENE 1.6 km/h 14.5 km/h 62 % 0 mm
13:12 33 °C 24.7 °C 1016.8 hPa West 3.2 km/h 12.9 km/h 62 % 0 mm
13:17 33.1 °C 24.6 °C 1016.8 hPa SE 4.8 km/h 11.3 km/h 61 % 0 mm
13:22 33.2 °C 24.1 °C 1016.8 hPa South 9.7 km/h 11.3 km/h 59 % 0 mm
13:27 33.4 °C 24.8 °C 1016.5 hPa ESE 9.7 km/h 17.7 km/h 61 % 0 mm
13:32 33.6 °C 23.9 °C 1016.5 hPa East 4.8 km/h 17.7 km/h 57 % 0 mm
13:38 33.8 °C 25.8 °C 1016.5 hPa South 3.2 km/h 17.7 km/h 63 % 0 mm
13:43 34.1 °C 25.5 °C 1016.5 hPa SSE 6.4 km/h 17.7 km/h 61 % 0 mm
13:48 34 °C 24.3 °C 1016.5 hPa SW 6.4 km/h 8 km/h 57 % 0 mm
13:53 34.3 °C 24.6 °C 1016.1 hPa Calm   11.3 km/h 57 % 0 mm
13:58 34.7 °C 24.3 °C 1016.1 hPa SSW 9.7 km/h 11.3 km/h 55 % 0 mm
14:03 34.4 °C 23.7 °C 1016.5 hPa ENE 4.8 km/h 12.9 km/h 54 % 0 mm
14:08 33.8 °C 24.9 °C 1016.8 hPa ENE 1.6 km/h 12.9 km/h 60 % 0 mm
14:13 32.3 °C 25.4 °C 1016.5 hPa East 11.3 km/h 14.5 km/h 67 % 0 mm
14:18 31 °C 24.9 °C 1016.5 hPa ESE 8 km/h 16.1 km/h 70 % 0 mm
14:23 30.2 °C 24.8 °C 1016.8 hPa NNE 1.6 km/h 16.1 km/h 73 % 0 mm
14:28 29.6 °C 24.7 °C 1016.8 hPa WNW 1.6 km/h 16.1 km/h 75 % 0 mm
14:33 29 °C 24.3 °C 1016.8 hPa SSE 3.2 km/h 17.7 km/h 76 % 0 mm
16:39 30.1 °C 26.9 °C 1015.5 hPa ENE 3.2 km/h 9.7 km/h 83 % 0 mm
16:45 30.6 °C 26.5 °C 1015.5 hPa SSE 1.6 km/h 9.7 km/h 79 % 0 mm
16:50 30.8 °C 26.5 °C 1015.5 hPa Calm   9.7 km/h 78 % 0 mm
16:55 30.9 °C 26.4 °C 1015.5 hPa Calm   8 km/h 77 % 0 mm
17:00 31 °C 26.3 °C 1015.5 hPa North 3.2 km/h 9.7 km/h 76 % 0 mm
17:05 31.1 °C 26.4 °C 1015.5 hPa NNW 1.6 km/h 9.7 km/h 76 % 0 mm
17:10 31.2 °C 26.5 °C 1015.5 hPa NNW 1.6 km/h 8 km/h 76 % 0 mm
17:15 31.2 °C 26.5 °C 1015.5 hPa NW 3.2 km/h 11.3 km/h 76 % 0 mm
17:20 31.2 °C 26.5 °C 1015.5 hPa Calm   11.3 km/h 76 % 0 mm
17:25 31.2 °C 26.2 °C 1015.5 hPa ENE 3.2 km/h 11.3 km/h 75 % 0 mm
17:30 31.2 °C 26.5 °C 1015.5 hPa Calm   9.7 km/h 76 % 0 mm
17:35 31.1 °C 26.4 °C 1015.5 hPa SE 3.2 km/h 9.7 km/h 76 % 0 mm
17:37 31.1 °C 26.6 °C 1015.5 hPa ENE 4.8 km/h 9.7 km/h 77 % 0 mm
17:42 30.9 °C 26.4 °C 1015.5 hPa ESE 3.2 km/h 9.7 km/h 77 % 0 mm
17:47 30.9 °C 26.6 °C 1015.5 hPa ENE 4.8 km/h 8 km/h 78 % 0 mm
17:52 30.8 °C 26.5 °C 1015.5 hPa ENE 1.6 km/h 9.7 km/h 78 % 0 mm
17:57 30.8 °C 26.5 °C 1015.5 hPa SE 1.6 km/h 9.7 km/h 78 % 0 mm
18:02 30.5 °C 25.6 °C 1015.8 hPa SSW 3.2 km/h 9.7 km/h 75 % 0 mm
18:07 29.9 °C 25.6 °C 1015.8 hPa SSE 6.4 km/h 14.5 km/h 78 % 0 mm
18:12 29.1 °C 25.1 °C 1015.8 hPa SW 3.2 km/h 14.5 km/h 79 % 0 mm
18:17 27.8 °C 25 °C 1015.8 hPa SW 6.4 km/h 17.7 km/h 85 % 0.51 mm
18:22 26.8 °C 24.8 °C 1015.8 hPa Calm   17.7 km/h 89 % 2.03 mm
18:27 26.3 °C 24.9 °C 1015.8 hPa Calm   17.7 km/h 92 % 2.29 mm
18:32 26.1 °C 24.9 °C 1015.8 hPa Calm   8 km/h 93 % 2.54 mm
18:37 25.9 °C 24.9 °C 1015.8 hPa Calm   3.2 km/h 94 % 2.54 mm
18:42 25.8 °C 24.9 °C 1015.8 hPa Calm   1.6 km/h 95 % 2.54 mm
18:47 25.7 °C 25 °C 1015.5 hPa Calm   1.6 km/h 96 % 2.54 mm
18:52 25.9 °C 25.4 °C 1015.5 hPa East 1.6 km/h 1.6 km/h 97 % 2.54 mm
18:57 25.9 °C 25.4 °C 1015.5 hPa Calm   3.2 km/h 97 % 2.54 mm
19:02 26.2 °C 25.9 °C 1015.5 hPa Calm   3.2 km/h 98 % 2.54 mm
19:12 26.7 °C 26.4 °C 1015.5 hPa Calm   3.2 km/h 98 % 2.54 mm
19:17 26.9 °C 26.6 °C 1015.5 hPa Calm   1.6 km/h 98 % 2.03 mm
19:22 27.2 °C 27 °C 1015.5 hPa ESE 4.8 km/h 4.8 km/h 99 % 0.51 mm
19:27 26.8 °C 26.3 °C 1015.5 hPa SE 1.6 km/h 4.8 km/h 97 % 0.25 mm
19:32 26.6 °C 26.1 °C 1015.5 hPa ESE 1.6 km/h 8 km/h 97 % 0 mm
19:37 26.6 °C 26.1 °C 1015.5 hPa SSE 3.2 km/h 9.7 km/h 97 % 0 mm
19:42 26.7 °C 26 °C 1015.5 hPa SE 3.2 km/h 9.7 km/h 96 % 0 mm
19:47 26.8 °C 26.1 °C 1015.5 hPa SE 1.6 km/h 9.7 km/h 96 % 0 mm
19:52 26.9 °C 26 °C 1015.5 hPa Calm   6.4 km/h 95 % 0 mm
19:57 27.1 °C 25.9 °C 1015.5 hPa ESE 4.8 km/h 9.7 km/h 93 % 0 mm
20:02 27.3 °C 25.7 °C 1015.5 hPa SE 3.2 km/h 9.7 km/h 91 % 0 mm
20:07 27.7 °C 25.7 °C 1015.5 hPa East 1.6 km/h 9.7 km/h 89 % 0 mm
20:12 27.9 °C 25.5 °C 1015.5 hPa ESE 1.6 km/h 8 km/h 87 % 0 mm
20:17 28.1 °C 25.3 °C 1015.5 hPa ESE 6.4 km/h 8 km/h 85 % 0 mm
20:22 28.1 °C 25.1 °C 1015.5 hPa ESE 4.8 km/h 8 km/h 84 % 0 mm
20:27 28.1 °C 25.1 °C 1015.5 hPa ESE 3.2 km/h 8 km/h 84 % 0 mm
20:32 28.1 °C 25.1 °C 1015.5 hPa SE 1.6 km/h 8 km/h 84 % 0 mm
20:37 28.1 °C 25.1 °C 1015.5 hPa Calm   6.4 km/h 84 % 0 mm
20:42 28 °C 25 °C 1015.8 hPa Calm   6.4 km/h 84 % 0 mm
20:47 27.9 °C 24.9 °C 1015.8 hPa ESE 1.6 km/h 6.4 km/h 84 % 0 mm
20:52 27.9 °C 24.9 °C 1015.8 hPa Calm   6.4 km/h 84 % 0 mm
20:58 27.8 °C 25 °C 1015.8 hPa Calm   3.2 km/h 85 % 0 mm
21:03 27.8 °C 25 °C 1015.8 hPa Calm   3.2 km/h 85 % 0 mm
21:08 27.7 °C 25.1 °C 1015.8 hPa Calm   3.2 km/h 86 % 0 mm
21:13 27.6 °C 25 °C 1015.8 hPa Calm     86 % 0 mm
21:18 27.5 °C 24.9 °C 1016.1 hPa Calm   1.6 km/h 86 % 0 mm
21:23 27.4 °C 25 °C 1016.1 hPa Calm   1.6 km/h 87 % 0 mm
21:28 27.3 °C 25.1 °C 1016.1 hPa Calm   1.6 km/h 88 % 0 mm
21:33 27.3 °C 25.1 °C 1016.1 hPa Calm   1.6 km/h 88 % 0 mm
21:38 27.3 °C 25.3 °C 1016.1 hPa Calm   1.6 km/h 89 % 0 mm
21:43 27.3 °C 25.3 °C 1016.1 hPa Calm   1.6 km/h 89 % 0 mm
21:48 27.3 °C 25.3 °C 1016.1 hPa ESE 1.6 km/h 8 km/h 89 % 0 mm
21:53 27.4 °C 25.4 °C 1016.1 hPa SE 1.6 km/h 8 km/h 89 % 0 mm
21:58 27.4 °C 25.4 °C 1016.5 hPa ESE 1.6 km/h 8 km/h 89 % 0 mm
22:03 27.4 °C 25.4 °C 1016.5 hPa Calm   4.8 km/h 89 % 0 mm
22:08 27.4 °C 25.4 °C 1016.5 hPa SE 1.6 km/h 4.8 km/h 89 % 0 mm
22:13 27.4 °C 25.6 °C 1016.5 hPa ESE 1.6 km/h 4.8 km/h 90 % 0 mm
22:18 27.4 °C 25.6 °C 1016.5 hPa SE 1.6 km/h 4.8 km/h 90 % 0 mm
22:23 27.4 °C 25.6 °C 1016.5 hPa Calm   3.2 km/h 90 % 0 mm
22:28 27.4 °C 25.6 °C 1016.8 hPa Calm   3.2 km/h 90 % 0 mm
22:33 27.3 °C 25.5 °C 1016.5 hPa ESE 1.6 km/h 3.2 km/h 90 % 0 mm
22:38 27.3 °C 25.5 °C 1016.5 hPa SSE 1.6 km/h 3.2 km/h 90 % 0 mm
22:43 27.3 °C 25.5 °C 1016.8 hPa Calm   4.8 km/h 90 % 0 mm
22:45 27.2 °C 25.4 °C 1016.8 hPa SE 1.6 km/h 4.8 km/h 90 % 0 mm
22:50 27.2 °C 25.2 °C 1016.8 hPa ESE 1.6 km/h 4.8 km/h 89 % 0 mm
22:55 27.3 °C 25.3 °C 1016.8 hPa SE 3.2 km/h 4.8 km/h 89 % 0 mm
23:00 27.3 °C 25.1 °C 1016.8 hPa Calm   6.4 km/h 88 % 0 mm
23:05 27.3 °C 25.1 °C 1017.2 hPa South 3.2 km/h 6.4 km/h 88 % 0 mm
23:10 27.3 °C 25.1 °C 1017.2 hPa Calm   6.4 km/h 88 % 0 mm
23:15 27.2 °C 25 °C 1017.2 hPa Calm   4.8 km/h 88 % 0 mm
23:20 27.2 °C 25 °C 1017.2 hPa Calm   4.8 km/h 88 % 0 mm
23:25 27.1 °C 24.9 °C 1017.2 hPa South 3.2 km/h 4.8 km/h 88 % 0 mm
23:30 27.2 °C 25 °C 1017.2 hPa SSE 3.2 km/h 4.8 km/h 88 % 0 mm
23:35 27.2 °C 25 °C 1016.8 hPa SSW 1.6 km/h 4.8 km/h 88 % 0 mm
23:40 27.2 °C 25 °C 1017.2 hPa SSW 1.6 km/h 4.8 km/h 88 % 0 mm
23:45 27.1 °C 24.9 °C 1017.2 hPa Calm   4.8 km/h 88 % 0 mm
23:50 27.1 °C 24.9 °C 1017.2 hPa SSW 1.6 km/h 3.2 km/h 88 % 0 mm
23:55 27 °C 24.8 °C 1017.2 hPa SSE 1.6 km/h 3.2 km/h 88 % 0 mm
Spring, Texas: Villages of Bridgestone
Compliments of Weather Underground - 3 mb

Script developed by  Jim McMurry - jmcmurry@mwt.net Adapted for the template by  Wim van der Kuil - Leuven-Template.eu

You find our weather info also at:

UK Metoffice

WeatherCloud

Weather Underground

Mid-South Weather Network

AWEKAS

Citizen Weather Observer Program (CWOP)

HAMweather, WeatherForYou, PWS Weather

Equipment we use:

Weather-station
Davis Vantage Vue

Weather-program
Meteohub

Weather-server
Debian 7.9 x86 (Guest)

Provider
DreamHost

Davis Vantage Vue

Meteohub

Debian 7.9 x86 (Guest)

DreamHost